• Join FlightAware (Why Join?)
  • Login
  • US Flag 
10:48PM EDT


 

Airport Tracker/Info


-or-


 

Live Flight TrackerFlight Track Log ✈ N724AE ✈ 08-May-2012 ✈ KTYR - KDFW

Flight Track Log - Related Links

Times and Time Zones

All times are in EDT time to prevent confusion due to time zone crossing. See the N724AE flight status page for this flight to view local times or setup timezone preferences in your user account.

Time Position Orientation Groundspeed Altitude Reporting Facility
EDT Latitude Longitude Course Direction KTS MPH feet Rate Location/Type
07:24PM 32.3441 -95.4460 256° West  Level FlightAware Approximate
07:25PM 32.3167 -95.5202 46° Northeast  Level FlightAware Approximate
07:26PM 32.3325 -95.5006 257° West 219 252 5,000  Level Fort Worth Center
07:29PM 32.2800 -95.7744 257° West 302 348 11,800 1,740 Climbing Fort Worth Center
07:30PM 32.2583 -95.8853 255° West 340 391 12,000 60 Climbing Fort Worth Center
07:31PM 32.2325 -96.0011 275° West 361 415 12,000  Level Fort Worth Center
07:32PM 32.2422 -96.1214 304° West 361 415 12,000  Level Fort Worth Center
07:32PM 32.2675 -96.1653 296° West 379 436 12,000 -360 Level FAA TRACON SMA TRACON (SMA)
07:33PM 32.2997 -96.2422 296° West 377 434 11,600 -780 Descending FAA TRACON SMA TRACON (SMA)
07:34PM 32.3250 -96.3025 297° West 336 387 11,000 -360 Descending FAA TRACON SMA TRACON (SMA)
07:35PM 32.3619 -96.3897 297° West 293 337 11,000 -120 Level FAA TRACON SMA TRACON (SMA)
07:35PM 32.3883 -96.4503 314° West 299 344 10,800 -1,020 Descending FAA TRACON SMA TRACON (SMA)
07:36PM 32.4267 -96.4972 319° Northwest 285 328 9,700 -1,860 Descending FAA TRACON SMA TRACON (SMA)
07:37PM 32.4664 -96.5386 321° Northwest 272 313 8,400 -1,800 Descending FAA TRACON SMA TRACON (SMA)
07:37PM 32.5017 -96.5728 317° Northwest 266 306 7,400 -1,500 Descending FAA TRACON SMA TRACON (SMA)
07:38PM 32.5381 -96.6131 320° Northwest 259 298 6,400 -1,500 Descending FAA TRACON SMA TRACON (SMA)
07:39PM 32.5781 -96.6525 319° Northwest 268 308 5,400 -1,080 Descending FAA TRACON SMA TRACON (SMA)
07:39PM 32.6122 -96.6872 319° Northwest 264 304 5,000 -300 Descending FAA TRACON SMA TRACON (SMA)
07:40PM 32.6503 -96.7261 324° Northwest 263 303 5,000  Level FAA TRACON SMA TRACON (SMA)
07:41PM 32.6919 -96.7625 317° Northwest 268 308 5,000  Level FAA TRACON SMA TRACON (SMA)
07:41PM 32.7250 -96.7986 317° Northwest 266 306 5,000  Level FAA TRACON SMA TRACON (SMA)